createdAt,value
2023-04-19T05:03:46.068Z,22.19
2023-04-19T05:06:12.531Z,22.15
2023-04-19T05:08:39.007Z,22.93
2023-04-19T05:15:58.273Z,24.62
2023-04-19T05:18:24.759Z,25.54
2023-04-19T05:20:51.314Z,25.98
2023-04-19T05:30:37.142Z,26.88
2023-04-19T05:33:04.515Z,26.22
2023-04-19T05:35:31.073Z,25.44
2023-04-19T05:37:57.555Z,24.81
2023-04-19T05:40:24.107Z,24.18
2023-04-19T05:42:50.654Z,24.01
2023-04-19T05:45:17.214Z,23.60
2023-04-19T05:47:43.754Z,23.22
2023-04-19T05:50:10.521Z,22.71
2023-04-19T05:55:03.575Z,23.60
2023-04-19T05:57:30.143Z,24.24
2023-04-19T05:59:56.689Z,24.36
2023-04-19T06:02:24.740Z,24.68
2023-04-19T06:04:51.419Z,25.16
2023-04-19T06:07:31.108Z,25.00
2023-04-19T06:09:59.318Z,24.16
2023-04-19T06:12:25.890Z,23.85
2023-04-19T06:14:52.799Z,24.47
2023-04-19T06:17:19.373Z,23.57
2023-04-19T06:19:45.857Z,23.58
2023-04-19T06:22:12.346Z,23.61
2023-04-19T06:24:38.833Z,23.17
2023-04-19T06:27:05.336Z,23.29
2023-04-19T06:29:31.847Z,24.50
2023-04-19T06:31:58.465Z,26.86
2023-04-19T06:34:25.030Z,29.40
2023-04-19T06:36:51.487Z,30.78
2023-04-19T06:39:18.011Z,32.28
2023-04-19T06:41:44.516Z,32.84
2023-04-19T06:44:10.989Z,32.88
2023-04-19T06:46:37.549Z,31.13
2023-04-19T06:49:04.205Z,29.70
2023-04-19T06:51:31.025Z,29.78
2023-04-19T06:53:57.649Z,28.79
2023-04-19T06:56:41.473Z,28.47
2023-04-19T06:59:08.195Z,28.70
2023-04-19T07:01:34.726Z,28.93
2023-04-19T07:04:01.596Z,29.20
2023-04-19T07:06:28.585Z,29.06
2023-04-19T07:08:55.145Z,28.25
2023-04-19T07:11:22.573Z,27.83
2023-04-19T07:16:16.229Z,27.51
2023-04-19T07:18:42.988Z,27.64
2023-04-19T07:21:09.956Z,27.14
2023-04-19T07:23:36.409Z,27.10
2023-04-19T07:26:02.993Z,27.04
2023-04-19T07:28:29.885Z,27.77
2023-04-19T07:30:56.685Z,27.79
2023-04-19T07:33:25.937Z,27.83
2023-04-19T07:35:54.665Z,27.03
2023-04-19T07:38:21.145Z,26.17
2023-04-19T07:40:47.681Z,25.90
2023-04-19T07:43:14.303Z,25.54
2023-04-19T07:45:40.828Z,25.72
2023-04-19T07:48:07.353Z,26.09
2023-04-19T07:50:33.856Z,26.33
2023-04-19T07:53:01.386Z,26.99
2023-04-19T07:55:27.946Z,26.80
2023-04-19T07:57:54.440Z,26.72
2023-04-19T08:00:21.013Z,26.51
2023-04-19T08:02:48.900Z,26.49
2023-04-19T08:05:16.708Z,25.84
2023-04-19T08:07:44.198Z,24.76
2023-04-19T08:10:11.339Z,24.79
2023-04-19T08:12:44.915Z,24.79
2023-04-19T08:17:47.025Z,25.24
2023-04-19T08:20:13.593Z,25.21
2023-04-19T08:22:40.474Z,25.23
2023-04-19T08:25:08.090Z,25.19
2023-04-19T08:27:36.116Z,25.46
2023-04-19T08:30:03.133Z,25.19
2023-04-19T08:32:29.646Z,25.94
2023-04-19T08:34:56.106Z,25.42
2023-04-19T08:37:22.697Z,25.07
2023-04-19T08:39:49.247Z,25.53
2023-04-19T08:42:32.525Z,25.49
2023-04-19T08:45:26.131Z,25.73
2023-04-19T08:47:59.871Z,25.86
2023-04-19T08:50:33.535Z,25.84
2023-04-19T08:53:16.411Z,25.38
2023-04-19T08:58:28.970Z,25.57
2023-04-19T09:00:59.682Z,25.79
2023-04-19T09:03:27.377Z,25.04
2023-04-19T09:05:54.747Z,24.42
2023-04-19T09:08:26.381Z,24.50
2023-04-19T09:10:55.133Z,24.98
2023-04-19T09:13:21.941Z,25.02
2023-04-19T09:15:48.484Z,24.41
2023-04-19T09:18:15.036Z,25.05
2023-04-19T09:20:43.706Z,26.14
2023-04-19T09:23:12.923Z,26.35
2023-04-19T09:26:15.136Z,26.10
2023-04-19T09:28:38.197Z,25.25
2023-04-19T09:31:33.068Z,25.34
2023-04-19T09:34:11.866Z,25.67
2023-04-19T09:36:38.392Z,25.41
2023-04-19T09:39:04.910Z,24.81
2023-04-19T09:41:31.896Z,23.70
2023-04-19T09:44:50.158Z,23.81
2023-04-19T09:46:57.618Z,22.15
2023-04-19T09:49:36.906Z,21.90
2023-04-19T09:52:14.140Z,22.40
2023-04-19T09:54:41.787Z,22.33
2023-04-19T09:57:08.491Z,21.34
2023-04-19T09:59:35.034Z,21.34
2023-04-19T10:02:02.891Z,20.72
